Time;durP1;ratioP1;P1;durP2;ratioP2;P2;SDS_P1;SDS_P2;PMS_P1;PMS_P2;Temp;Humidity;BMP_temperature;BMP_pressure;BME280_temperature;BME280_humidity;BME280_pressure;Samples;Min_cycle;Max_cycle;Signal;HPM_P1;HPM_P2
2022/06/29 00:00:29;;;;;;;3.73;3.37;;;;;;;14.95;100.00;101604.97;5010271;28;20041;-75
2022/06/29 00:02:55;;;;;;;4.90;3.00;;;;;;;14.90;100.00;101601.97;5020960;28;20029;-75
2022/06/29 00:05:22;;;;;;;;;;;;;;;14.96;100.00;101606.66;5016597;28;20041;-76
2022/06/29 00:07:48;;;;;;;4.75;2.55;;;;;;;14.99;100.00;101611.69;5017209;28;20428;-75
2022/06/29 00:10:14;;;;;;;4.80;2.97;;;;;;;14.98;100.00;101599.25;5019697;28;20226;-75
2022/06/29 00:12:41;;;;;;;5.80;3.40;;;;;;;14.89;100.00;101597.59;5021945;28;20052;-75
2022/06/29 00:15:06;;;;;;;;;;;;;;;14.86;100.00;101608.69;5018795;28;20042;-75
2022/06/29 00:17:33;;;;;;;8.00;3.63;;;;;;;14.85;100.00;101596.28;5021928;28;19909;-75
2022/06/29 00:20:00;;;;;;;6.05;3.00;;;;;;;14.90;100.00;101605.50;5001581;28;20045;-76
2022/06/29 00:22:26;;;;;;;3.45;2.55;;;;;;;14.92;100.00;101608.84;5020276;28;20029;-75
2022/06/29 00:24:52;;;;;;;3.58;3.28;;;;;;;14.89;100.00;101611.03;5002589;28;20037;-75
2022/06/29 00:27:17;;;;;;;4.13;3.20;;;;;;;14.95;100.00;101607.66;5018441;28;20026;-75
2022/06/29 00:29:43;;;;;;;3.50;2.80;;;;;;;14.98;100.00;101601.94;5020658;28;20025;-75
2022/06/29 00:32:09;;;;;;;5.90;3.30;;;;;;;14.93;100.00;101597.06;5017603;28;20606;-75
2022/06/29 00:34:34;;;;;;;4.43;3.13;;;;;;;14.96;100.00;101595.88;5021286;28;20029;-75
2022/06/29 00:37:00;;;;;;;4.32;3.42;;;;;;;14.98;100.00;101585.81;5019266;28;20043;-75
2022/06/29 00:39:26;;;;;;;4.22;2.75;;;;;;;14.97;100.00;101579.59;5019788;28;20030;-74
2022/06/29 00:41:51;;;;;;;6.03;3.10;;;;;;;15.02;100.00;101584.47;5021383;28;20025;-75
2022/06/29 00:44:18;;;;;;;4.73;3.17;;;;;;;15.06;100.00;101583.13;5014176;28;20475;-76
2022/06/29 00:46:49;;;;;;;5.50;3.45;;;;;;;15.18;100.00;101575.53;5021181;28;20032;-75
2022/06/29 00:49:16;;;;;;;3.45;2.58;;;;;;;15.17;100.00;101569.31;5017962;28;20034;-75
2022/06/29 00:51:45;;;;;;;5.03;3.70;;;;;;;15.16;100.00;101562.25;5017815;28;20033;-75
2022/06/29 00:54:15;;;;;;;3.33;2.50;;;;;;;15.29;100.00;101564.41;5016164;28;20329;-75
2022/06/29 00:56:41;;;;;;;3.53;3.22;;;;;;;15.36;100.00;101559.16;5021066;28;20121;-75
2022/06/29 00:59:11;;;;;;;3.13;2.83;;;;;;;15.42;100.00;101561.13;5016820;28;20140;-75
2022/06/29 01:01:38;;;;;;;2.55;2.33;;;;;;;15.39;100.00;101553.44;5019804;28;20045;-75
2022/06/29 01:04:04;;;;;;;5.50;2.88;;;;;;;15.41;100.00;101552.22;5012320;28;20033;-75
2022/06/29 01:06:29;;;;;;;2.67;2.15;;;;;;;15.44;100.00;101526.81;4990455;28;20481;-75
2022/06/29 01:08:54;;;;;;;2.97;2.23;;;;;;;15.39;100.00;101526.53;5014573;28;20036;-75
2022/06/29 01:11:20;;;;;;;5.30;2.20;;;;;;;15.51;100.00;101527.78;5017924;28;20095;-75
2022/06/29 01:13:47;;;;;;;3.03;2.20;;;;;;;15.50;100.00;101511.81;5020240;28;20373;-74
2022/06/29 01:16:12;;;;;;;2.70;2.50;;;;;;;15.46;100.00;101524.81;5015917;28;20119;-75
2022/06/29 01:18:38;;;;;;;3.13;2.83;;;;;;;15.49;100.00;101531.69;5019281;28;20417;-75
2022/06/29 01:21:04;;;;;;;4.43;2.73;;;;;;;15.44;100.00;101545.66;5016402;28;20044;-75
2022/06/29 01:23:31;;;;;;;2.67;2.35;;;;;;;15.40;100.00;101549.72;4993026;28;20299;-75
2022/06/29 01:25:56;;;;;;;2.72;2.38;;;;;;;15.33;100.00;101543.34;5016915;28;20041;-74
2022/06/29 01:28:22;;;;;;;3.20;2.77;;;;;;;15.28;100.00;101543.88;5019531;28;20033;-75
2022/06/29 01:30:47;;;;;;;2.60;2.40;;;;;;;15.25;100.00;101544.22;5018264;28;20123;-75
2022/06/29 01:33:12;;;;;;;4.10;2.87;;;;;;;15.31;100.00;101548.06;5016897;28;20483;-75
2022/06/29 01:35:38;;;;;;;4.30;2.30;;;;;;;15.29;100.00;101536.63;5020147;28;20111;-75
2022/06/29 01:38:03;;;;;;;2.90;2.60;;;;;;;15.26;100.00;101531.59;5016307;28;20022;-74
2022/06/29 01:40:28;;;;;;;4.00;2.57;;;;;;;15.22;100.00;101541.91;5008752;28;20508;-75
2022/06/29 01:42:55;;;;;;;4.40;2.80;;;;;;;15.13;100.00;101538.38;5018550;28;20066;-75
2022/06/29 01:45:21;;;;;;;3.72;2.55;;;;;;;15.05;100.00;101541.09;5018832;28;20124;-76
2022/06/29 01:47:46;;;;;;;6.43;2.67;;;;;;;14.97;100.00;101543.81;5019354;28;20104;-75
2022/06/29 01:50:12;;;;;;;3.17;2.73;;;;;;;14.89;100.00;101551.88;5016340;28;20558;-76
2022/06/29 01:52:37;;;;;;;3.17;2.73;;;;;;;14.86;100.00;101542.31;5017745;28;20029;-75
2022/06/29 01:55:03;;;;;;;3.03;2.67;;;;;;;14.80;100.00;101531.41;5015609;28;20030;-75
2022/06/29 01:57:28;;;;;;;4.13;2.67;;;;;;;14.87;100.00;101543.19;5015320;28;20025;-75
2022/06/29 01:59:54;;;;;;;5.00;3.20;;;;;;;14.81;100.00;101538.47;5012256;28;20081;-75
2022/06/29 02:02:19;;;;;;;5.33;2.80;;;;;;;14.76;100.00;101529.06;5017344;28;20368;-75
2022/06/29 02:04:44;;;;;;;3.93;2.57;;;;;;;14.68;100.00;101525.53;5017870;28;20076;-75
2022/06/29 02:07:10;;;;;;;4.57;2.93;;;;;;;14.60;100.00;101534.47;5017406;28;20033;-75
2022/06/29 02:09:35;;;;;;;3.10;2.87;;;;;;;14.56;100.00;101530.44;5019973;28;20073;-75
2022/06/29 02:12:00;;;;;;;6.63;2.37;;;;;;;14.59;100.00;101538.16;4999517;28;20111;-75
2022/06/29 02:14:26;;;;;;;3.37;2.60;;;;;;;14.60;100.00;101531.78;5017417;28;20402;-75
2022/06/29 02:16:51;;;;;;;4.53;3.10;;;;;;;14.53;100.00;101530.75;5018172;28;20029;-75
2022/06/29 02:19:17;;;;;;;2.83;2.43;;;;;;;14.44;100.00;101521.84;5018087;28;20034;-75
2022/06/29 02:21:42;;;;;;;3.97;2.50;;;;;;;14.44;100.00;101510.25;5019488;28;20069;-75
2022/06/29 02:24:07;;;;;;;3.97;2.40;;;;;;;14.47;100.00;101520.66;5015185;28;20053;-76
2022/06/29 02:26:33;;;;;;;3.93;2.40;;;;;;;14.44;100.00;101511.09;5018594;28;20025;-75
2022/06/29 02:28:59;;;;;;;5.32;2.53;;;;;;;14.48;100.00;101517.81;5016848;28;20033;-75
2022/06/29 02:36:52;;;;;;;3.55;2.22;;;;;;;14.48;100.00;101495.50;5017967;28;20116;-76
2022/06/29 02:39:17;;;;;;;11.57;3.27;;;;;;;14.49;100.00;101507.91;5017721;28;20030;-75
2022/06/29 02:41:43;;;;;;;3.40;2.43;;;;;;;14.51;100.00;101503.19;5013511;28;20475;-75
2022/06/29 02:44:08;;;;;;;4.53;2.30;;;;;;;14.48;100.00;101500.88;4993464;28;20045;-75
2022/06/29 02:46:34;;;;;;;4.87;2.37;;;;;;;14.50;100.00;101493.47;5019331;28;20163;-75
2022/06/29 02:48:59;;;;;;;2.97;2.20;;;;;;;14.51;100.00;101504.03;5016723;28;20041;-75
2022/06/29 02:51:25;;;;;;;3.93;2.53;;;;;;;14.49;100.00;101492.66;5020016;28;20037;-75
2022/06/29 02:53:50;;;;;;;3.58;2.40;;;;;;;14.52;100.00;101497.66;5023317;28;20029;-76
2022/06/29 02:56:16;;;;;;;4.53;2.50;;;;;;;14.50;100.00;101483.56;5023818;28;20038;-75
2022/06/29 02:58:41;;;;;;;3.27;2.40;;;;;;;14.48;100.00;101487.44;5023519;28;20047;-75
2022/06/29 03:01:07;;;;;;;2.67;2.00;;;;;;;14.45;100.00;101490.47;5004981;28;20040;-75
2022/06/29 03:03:32;;;;;;;2.90;1.87;;;;;;;14.41;100.00;101489.94;5008165;28;20022;-75
2022/06/29 03:05:57;;;;;;;2.70;1.97;;;;;;;14.40;100.00;101487.44;5022034;28;20127;-75
2022/06/29 03:08:23;;;;;;;2.97;2.63;;;;;;;14.36;100.00;101482.41;5025347;28;20498;-75
2022/06/29 03:10:49;;;;;;;5.17;2.40;;;;;;;14.31;100.00;101474.00;5021878;28;20033;-75
2022/06/29 03:13:14;;;;;;;2.85;2.42;;;;;;;14.29;100.00;101485.94;5006118;28;20165;-75
2022/06/29 03:15:40;;;;;;;6.20;2.70;;;;;;;14.32;100.00;101489.09;5025368;28;20064;-75
2022/06/29 03:18:06;;;;;;;3.87;2.37;;;;;;;14.27;100.00;101482.59;5021146;28;20081;-75
2022/06/29 03:20:32;;;;;;;;;;;;;;;14.38;100.00;101492.16;5024438;28;20040;-75
2022/06/29 03:22:57;;;;;;;2.90;2.40;;;;;;;14.40;100.00;101492.78;5023385;28;19931;-75
2022/06/29 03:25:23;;;;;;;2.90;2.60;;;;;;;14.39;100.00;101481.22;5024220;28;20048;-75
2022/06/29 03:27:48;;;;;;;6.20;3.03;;;;;;;14.48;100.00;101485.56;5024623;28;20037;-76
2022/06/29 03:30:13;;;;;;;4.03;2.57;;;;;;;14.46;100.00;101467.94;5022934;28;20057;-75
2022/06/29 03:32:39;;;;;;;3.83;2.73;;;;;;;14.56;100.00;101482.06;5007851;28;20120;-75
2022/06/29 03:35:05;;;;;;;4.88;2.72;;;;;;;14.59;100.00;101476.38;5019066;28;20566;-75
2022/06/29 03:37:30;;;;;;;3.53;2.50;;;;;;;14.72;100.00;101481.19;5022626;28;20032;-76
2022/06/29 03:39:56;;;;;;;5.70;2.93;;;;;;;14.75;100.00;101476.31;5019489;28;20041;-75
2022/06/29 03:42:22;;;;;;;5.43;2.67;;;;;;;14.78;100.00;101475.13;5023101;28;20030;-75
2022/06/29 03:44:48;;;;;;;6.15;2.95;;;;;;;14.87;100.00;101457.16;5006356;28;20045;-76
2022/06/29 03:47:13;;;;;;;7.00;2.67;;;;;;;14.98;100.00;101451.38;5022705;28;20080;-75
2022/06/29 03:49:38;;;;;;;3.27;2.37;;;;;;;15.06;100.00;101440.59;5007472;28;20402;-75
2022/06/29 03:52:05;;;;;;;4.10;3.43;;;;;;;15.16;100.00;101433.13;5022435;28;20116;-75
2022/06/29 03:54:31;;;;;;;8.27;3.17;;;;;;;15.30;100.00;101431.56;5024751;28;20556;-74
2022/06/29 03:56:56;;;;;;;6.23;2.30;;;;;;;15.35;100.00;101431.03;5023398;28;20021;-76
2022/06/29 03:59:22;;;;;;;5.90;2.67;;;;;;;15.44;100.00;101429.13;5024288;28;20615;-76
2022/06/29 04:01:47;;;;;;;3.70;2.40;;;;;;;15.50;100.00;101410.41;5023456;28;20243;-75
2022/06/29 04:04:13;;;;;;;5.30;2.70;;;;;;;15.61;100.00;101420.75;5017383;28;20029;-75
2022/06/29 04:06:39;;;;;;;2.83;1.98;;;;;;;15.75;100.00;101423.72;5004496;28;20496;-75
2022/06/29 04:09:04;;;;;;;7.38;3.40;;;;;;;15.87;100.00;101426.81;5018671;28;20030;-75
2022/06/29 04:14:17;;;;;;;5.18;2.22;;;;;;;16.03;100.00;101427.50;5016433;28;20537;-74
2022/06/29 04:16:43;;;;;;;4.72;2.33;;;;;;;16.00;100.00;101417.13;5022054;28;20544;-75
2022/06/29 04:19:08;;;;;;;3.22;1.75;;;;;;;16.18;100.00;101430.25;5017632;28;20065;-76
2022/06/29 04:21:34;;;;;;;2.97;2.27;;;;;;;16.14;100.00;101420.03;5021465;28;20128;-75
2022/06/29 04:23:59;;;;;;;3.47;2.20;;;;;;;16.09;100.00;101411.66;5017868;28;20112;-75
2022/06/29 04:26:25;;;;;;;6.17;2.47;;;;;;;16.25;100.00;101419.59;4984935;28;20137;-75
2022/06/29 04:28:50;;;;;;;5.63;2.37;;;;;;;16.30;100.00;101417.19;5019005;28;20025;-76
2022/06/29 04:31:16;;;;;;;2.57;2.00;;;;;;;16.33;100.00;101407.88;5018331;28;20483;-75
2022/06/29 04:33:41;;;;;;;5.10;2.33;;;;;;;16.36;100.00;101418.28;5021964;28;20047;-75
2022/06/29 04:36:07;;;;;;;5.00;1.83;;;;;;;16.53;100.00;101417.09;5016732;28;20034;-75
2022/06/29 04:38:32;;;;;;;4.05;2.53;;;;;;;16.54;100.00;101409.84;5019927;28;20048;-74
2022/06/29 04:40:59;;;;;;;5.07;2.30;;;;;;;16.66;100.00;101400.28;5019006;28;20033;-75
2022/06/29 04:43:27;;;;;;;11.35;2.45;;;;;;;16.54;100.00;101393.69;5012640;28;20052;-75
2022/06/29 04:48:37;;;;;;;2.60;1.92;;;;;;;16.65;100.00;101398.59;5004932;28;20035;-75
2022/06/29 04:51:02;;;;;;;3.37;1.93;;;;;;;16.83;100.00;101411.72;5018758;28;20030;-75
2022/06/29 04:53:27;;;;;;;5.07;1.97;;;;;;;17.03;100.00;101391.25;5017993;28;20116;-75
2022/06/29 04:55:53;;;;;;;3.80;2.07;;;;;;;17.20;100.00;101385.63;5012596;28;20687;-75
2022/06/29 04:58:18;;;;;;;3.90;1.60;;;;;;;17.09;100.00;101378.84;5019548;28;20038;-75
2022/06/29 05:00:44;;;;;;;6.60;2.30;;;;;;;17.05;100.00;101382.97;5019235;28;20044;-76
2022/06/29 05:03:09;;;;;;;4.20;2.03;;;;;;;17.18;100.00;101399.28;5017179;28;20044;-75
2022/06/29 05:05:34;;;;;;;2.80;2.13;;;;;;;17.28;100.00;101391.72;5015656;28;20029;-75
2022/06/29 05:08:00;;;;;;;5.27;2.13;;;;;;;17.14;100.00;101381.81;5014700;28;20092;-76
2022/06/29 05:10:25;;;;;;;3.30;1.97;;;;;;;17.19;100.00;101381.25;5018366;28;20034;-75
2022/06/29 05:12:50;;;;;;;7.57;1.83;;;;;;;17.30;100.00;101381.59;5019710;28;20402;-76
2022/06/29 05:15:16;;;;;;;2.10;1.63;;;;;;;17.39;100.00;101401.19;5015670;28;20026;-75
2022/06/29 05:17:41;;;;;;;3.70;2.07;;;;;;;17.45;100.00;101394.19;5019087;28;20026;-75
2022/06/29 05:20:08;;;;;;;2.50;2.00;;;;;;;17.71;100.00;101407.09;5017004;28;20044;-75
2022/06/29 05:22:35;;;;;;;3.13;1.90;;;;;;;17.90;100.00;101381.34;5015517;28;20398;-75
2022/06/29 05:25:00;;;;;;;;;;;;;;;18.03;100.00;101354.44;5019316;28;20136;-76
2022/06/29 05:27:25;;;;;;;;;;;;;;;18.28;100.00;101335.03;5014857;28;20062;-76
2022/06/29 05:29:51;;;;;;;4.30;1.67;;;;;;;18.34;100.00;101302.63;5017432;28;19966;-75
2022/06/29 05:32:16;;;;;;;4.07;1.80;;;;;;;18.08;100.00;101270.09;5015780;28;20041;-75
2022/06/29 05:34:42;;;;;;;4.67;1.73;;;;;;;18.30;100.00;101297.84;5014862;28;20180;-75
2022/06/29 05:37:07;;;;;;;5.60;1.80;;;;;;;18.55;100.00;101281.94;5015578;28;20033;-75
2022/06/29 05:39:32;;;;;;;5.03;1.87;;;;;;;18.57;100.00;101296.09;5018405;28;20433;-76
2022/06/29 05:41:58;;;;;;;5.03;1.63;;;;;;;18.62;100.00;101271.16;5017637;28;20037;-75
2022/06/29 05:44:23;;;;;;;6.17;1.80;;;;;;;19.20;100.00;101274.22;5013955;28;20033;-76
2022/06/29 05:46:49;;;;;;;5.53;1.80;;;;;;;19.56;100.00;101214.22;5018550;28;20040;-76
2022/06/29 05:49:14;;;;;;;3.40;1.93;;;;;;;19.79;100.00;101202.97;5015178;28;20327;-76
2022/06/29 05:51:39;;;;;;;2.50;1.30;;;;;;;20.09;100.00;101164.53;5016532;28;20848;-75
2022/06/29 05:54:05;;;;;;;3.97;1.57;;;;;;;20.59;100.00;101153.00;5017759;28;20049;-75
2022/06/29 05:56:30;;;;;;;3.87;1.63;;;;;;;20.62;100.00;101077.44;5014596;28;20112;-75
2022/06/29 05:58:56;;;;;;;5.47;1.53;;;;;;;21.42;100.00;101131.03;5014848;28;20026;-75
2022/06/29 06:01:21;;;;;;;5.63;1.60;;;;;;;21.84;100.00;101013.47;5015694;28;20038;-76
2022/06/29 06:03:46;;;;;;;4.30;1.50;;;;;;;21.81;100.00;100924.25;5018072;28;20030;-76
2022/06/29 06:06:12;;;;;;;3.93;1.20;;;;;;;21.54;100.00;101008.03;5013306;28;20124;-75
2022/06/29 06:08:37;;;;;;;3.83;1.40;;;;;;;22.05;100.00;100955.03;5017860;28;20467;-76
2022/06/29 06:11:03;;;;;;;4.68;1.75;;;;;;;21.92;100.00;100981.38;5017396;28;20037;-76
2022/06/29 06:13:28;;;;;;;3.90;1.37;;;;;;;22.34;96.78;100980.53;5013785;28;20215;-76
2022/06/29 06:15:53;;;;;;;3.60;1.43;;;;;;;21.92;96.82;100928.91;5016022;28;20299;-76
2022/06/29 06:18:19;;;;;;;4.27;1.30;;;;;;;22.39;92.96;100955.34;5015358;28;20036;-76
2022/06/29 06:20:44;;;;;;;1.20;1.00;;;;;;;22.47;90.99;100952.28;5017200;28;20398;-75
2022/06/29 06:23:10;;;;;;;1.27;1.00;;;;;;;22.74;86.80;100912.63;5013515;28;20121;-76
2022/06/29 06:25:35;;;;;;;6.67;1.40;;;;;;;21.93;85.46;100803.63;5018920;28;20367;-77
2022/06/29 06:28:00;;;;;;;2.70;1.27;;;;;;;22.00;90.62;100941.31;5000194;28;20021;-76
2022/06/29 06:30:27;;;;;;;2.63;1.40;;;;;;;21.30;93.86;100907.41;5013472;28;20406;-76
2022/06/29 06:32:53;;;;;;;2.65;1.30;;;;;;;22.18;95.39;101084.53;5016657;28;20272;-75
2022/06/29 06:35:19;;;;;;;4.22;1.70;;;;;;;23.21;81.73;100965.34;5014070;28;20044;-77
2022/06/29 06:37:46;;;;;;;4.13;1.73;;;;;;;23.90;73.95;100894.44;5014286;28;20029;-75
2022/06/29 06:42:55;;;;;;;4.22;1.38;;;;;;;22.39;78.31;100828.34;5017688;28;20112;-76
2022/06/29 06:45:21;;;;;;;3.23;1.23;;;;;;;22.83;82.32;101012.94;5013709;28;20464;-76
2022/06/29 06:47:46;;;;;;;2.87;1.37;;;;;;;23.48;73.98;100914.66;5014249;28;20623;-76
2022/06/29 06:50:11;;;;;;;4.93;1.00;;;;;;;23.57;72.93;100918.63;5014937;28;20038;-76
2022/06/29 06:52:37;;;;;;;1.77;1.20;;;;;;;24.27;68.65;100922.03;5017428;28;20076;-76
2022/06/29 06:55:03;;;;;;;2.17;1.20;;;;;;;23.38;69.45;100821.84;5016901;28;20111;-75
2022/06/29 06:57:28;;;;;;;4.57;1.38;;;;;;;23.42;66.97;100763.09;5015902;28;20491;-76
2022/06/29 06:59:53;;;;;;;4.20;1.17;;;;;;;22.73;69.93;100780.34;5015764;28;20033;-76
2022/06/29 07:02:22;;;;;;;4.07;1.80;;;;;;;23.33;66.80;100817.13;4997768;28;20676;-76
2022/06/29 07:04:47;;;;;;;3.78;1.20;;;;;;;23.45;64.13;100748.13;5011384;28;20394;-75
2022/06/29 07:07:14;;;;;;;1.85;1.17;;;;;;;23.53;64.04;100759.47;5015701;28;20041;-76
2022/06/29 07:09:39;;;;;;;;;;;;;;;23.68;64.94;100815.28;5009781;28;20101;-76
2022/06/29 07:12:04;;;;;;;3.60;1.13;;;;;;;23.53;67.46;100868.44;5013512;28;20334;-75
2022/06/29 07:14:30;;;;;;;1.88;1.27;;;;;;;23.24;65.52;100733.34;5016888;28;20462;-76
2022/06/29 07:16:56;;;;;;;2.38;1.63;;;;;;;22.97;70.20;100851.03;5015841;28;20044;-75
2022/06/29 07:19:22;;;;;;;4.10;1.35;;;;;;;23.41;67.29;100836.88;5018328;28;20030;-75
2022/06/29 07:21:47;;;;;;;4.53;1.08;;;;;;;22.59;68.18;100723.72;5016957;28;20039;-76
2022/06/29 07:24:12;;;;;;;1.70;1.00;;;;;;;22.47;68.12;100723.78;5015362;28;20125;-76
2022/06/29 07:26:38;;;;;;;2.20;1.23;;;;;;;22.67;71.95;100879.28;5019117;28;20486;-76
2022/06/29 07:29:03;;;;;;;3.40;1.20;;;;;;;23.23;70.30;100920.47;5014753;28;20307;-76
2022/06/29 07:31:29;;;;;;;7.53;1.70;;;;;;;23.28;67.46;100817.06;5008648;28;20032;-75
2022/06/29 07:33:54;;;;;;;3.97;2.17;;;;;;;23.58;67.46;100884.06;5016128;28;20355;-74
2022/06/29 07:36:20;;;;;;;5.20;1.70;;;;;;;24.42;63.61;100899.63;5017375;28;20034;-76
2022/06/29 07:38:45;;;;;;;1.55;1.00;;;;;;;23.83;65.67;100855.59;5020786;28;20025;-75
2022/06/29 07:41:11;;;;;;;2.40;1.30;;;;;;;23.74;65.70;100830.66;5019906;28;20048;-76
2022/06/29 07:43:37;;;;;;;2.30;1.10;;;;;;;23.08;69.92;100846.63;5022487;28;20272;-76
2022/06/29 07:46:02;;;;;;;4.90;1.35;;;;;;;24.51;66.21;100982.72;5001722;28;20479;-76
2022/06/29 07:48:28;;;;;;;2.03;1.00;;;;;;;23.59;67.04;100850.28;5004594;28;20029;-76
2022/06/29 07:50:53;;;;;;;2.97;1.80;;;;;;;24.18;65.81;100921.59;5019242;28;20045;-76
2022/06/29 07:53:19;;;;;;;5.78;2.17;;;;;;;23.97;62.81;100759.56;5021183;28;20432;-76
2022/06/29 07:55:45;;;;;;;1.80;1.50;;;;;;;24.05;66.70;100934.78;5003862;28;20044;-76
2022/06/29 07:58:13;;;;;;;5.05;2.30;;;;;;;24.33;62.85;100830.19;5018615;28;20021;-75
2022/06/29 08:00:38;;;;;;;4.38;1.50;;;;;;;24.48;59.67;100764.91;5022281;28;20044;-76
2022/06/29 08:03:04;;;;;;;1.55;1.20;;;;;;;24.28;59.79;100737.34;5018090;28;20413;-76
2022/06/29 08:05:29;;;;;;;4.03;1.40;;;;;;;24.58;60.95;100851.53;5004171;28;20037;-75
2022/06/29 08:07:54;;;;;;;9.97;1.60;;;;;;;24.76;57.49;100750.22;5019096;28;20035;-75
2022/06/29 08:10:20;;;;;;;2.95;1.50;;;;;;;23.44;58.04;100465.91;5020672;28;20116;-75
2022/06/29 08:12:45;;;;;;;5.53;1.37;;;;;;;23.89;60.21;100707.41;5020354;28;20390;-75
2022/06/29 08:15:11;;;;;;;3.95;1.98;;;;;;;24.70;59.06;100822.22;5018068;28;20284;-75
2022/06/29 08:17:36;;;;;;;4.00;1.60;;;;;;;25.05;56.86;100780.00;5020679;28;20038;-76
2022/06/29 08:20:03;;;;;;;2.33;1.57;;;;;;;25.52;56.03;100828.56;5017722;28;20046;-74
2022/06/29 08:22:29;;;;;;;4.15;1.50;;;;;;;25.87;53.49;100780.72;5015134;28;20828;-76
2022/06/29 08:24:54;;;;;;;3.90;1.17;;;;;;;25.90;52.88;100741.91;5019875;28;20037;-75
2022/06/29 08:27:22;;;;;;;2.50;1.63;;;;;;;24.78;52.47;100460.59;5020340;28;20029;-76
2022/06/29 08:29:48;;;;;;;3.08;1.35;;;;;;;22.89;58.89;100438.50;5019438;28;20291;-76
2022/06/29 08:32:13;;;;;;;1.92;1.33;;;;;;;24.59;59.02;100810.34;5002144;28;20026;-76
2022/06/29 08:34:39;;;;;;;1.52;1.42;;;;;;;25.26;54.77;100748.25;5021961;28;20140;-76
2022/06/29 08:37:05;;;;;;;4.03;1.98;;;;;;;25.62;51.54;100620.88;5017628;28;20430;-75
2022/06/29 08:39:30;;;;;;;;;;;;;;;24.61;50.59;100367.97;5022266;28;20021;-75
2022/06/29 08:42:01;;;;;;;2.10;1.45;;;;;;;24.26;53.13;100448.47;5020038;28;20003;-76
2022/06/29 08:44:29;;;;;;;1.77;1.52;;;;;;;24.56;55.56;100646.28;5021062;28;20336;-75
2022/06/29 08:46:54;;;;;;;7.00;1.52;;;;;;;25.71;53.02;100760.63;5020337;28;20148;-75
2022/06/29 08:49:21;;;;;;;3.63;1.73;;;;;;;25.94;50.65;100666.44;5019510;28;20175;-75
2022/06/29 08:51:47;;;;;;;3.10;1.70;;;;;;;25.13;49.86;100449.03;5021039;28;20365;-76
2022/06/29 08:54:15;;;;;;;2.25;1.30;;;;;;;25.03;50.61;100435.34;5018078;28;20033;-76
2022/06/29 08:56:41;;;;;;;3.40;1.30;;;;;;;24.90;52.84;100595.00;5021445;28;20457;-75
2022/06/29 08:59:08;;;;;;;6.50;1.65;;;;;;;24.04;54.07;100464.09;5018308;28;20030;-75
2022/06/29 09:01:33;;;;;;;2.25;1.25;;;;;;;23.94;57.49;100615.59;5021573;28;20087;-76
2022/06/29 09:03:58;;;;;;;5.47;2.00;;;;;;;24.20;59.29;100754.97;5021145;28;20524;-75
2022/06/29 09:06:24;;;;;;;2.97;1.50;;;;;;;24.26;56.58;100627.69;5014489;28;20154;-75
2022/06/29 09:08:50;;;;;;;3.78;1.33;;;;;;;25.16;55.20;100742.69;5018888;28;20116;-75
2022/06/29 09:11:34;;;;;;;5.93;1.83;;;;;;;24.37;56.05;100597.53;5011131;28;20029;-76
2022/06/29 09:14:10;;;;;;;3.33;1.67;;;;;;;25.26;55.64;100795.53;5011170;28;20038;-75
2022/06/29 09:16:55;;;;;;;;;;;;;;;25.49;54.61;100774.41;5012450;28;20061;-75
2022/06/29 09:19:23;;;;;;;3.80;1.65;;;;;;;26.12;52.30;100766.38;5018534;28;20024;-76
2022/06/29 09:21:50;;;;;;;2.70;1.60;;;;;;;26.27;51.11;100752.78;5003165;28;20429;-75
2022/06/29 09:24:21;;;;;;;4.25;1.40;;;;;;;26.24;51.37;100723.19;5015428;28;20471;-76
2022/06/29 09:26:55;;;;;;;3.03;1.35;;;;;;;26.61;50.01;100696.78;5018780;28;20060;-76
2022/06/29 09:29:27;;;;;;;2.60;1.30;;;;;;;27.02;49.12;100744.25;5018133;28;20030;-75
2022/06/29 09:32:07;;;;;;;1.80;1.40;;;;;;;27.17;48.58;100713.28;5017965;28;20034;-76
2022/06/29 09:34:33;;;;;;;2.53;1.33;;;;;;;26.91;48.83;100643.97;5009535;28;20544;-77
2022/06/29 09:37:00;;;;;;;;;;;;;;;27.80;48.10;100806.22;5017577;28;20237;-77
2022/06/29 09:39:47;;;;;;;1.95;1.30;;;;;;;28.53;46.09;100813.22;5019815;28;19924;-76
2022/06/29 09:42:16;;;;;;;4.10;1.50;;;;;;;27.74;45.32;100511.91;5014870;28;20069;-77
2022/06/29 09:44:42;;;;;;;2.78;1.40;;;;;;;26.28;48.00;100420.56;5011681;28;20113;-77
2022/06/29 09:47:15;;;;;;;3.55;1.60;;;;;;;24.90;51.83;100405.78;5018501;28;20056;-77
2022/06/29 09:49:43;;;;;;;1.35;1.10;;;;;;;25.61;50.79;100504.41;5018672;28;20030;-77
2022/06/29 09:52:09;;;;;;;3.65;1.42;;;;;;;24.79;51.68;100353.84;5013014;28;20518;-77
2022/06/29 09:54:39;;;;;;;5.68;1.20;;;;;;;24.31;55.69;100497.59;5019133;28;20052;-76
2022/06/29 09:57:06;;;;;;;3.28;1.50;;;;;;;25.28;55.64;100722.31;5017339;28;20077;-75
2022/06/29 10:02:45;;;;;;;3.67;1.70;;;;;;;24.25;56.70;100542.28;5014113;28;20034;-76
2022/06/29 10:05:22;;;;;;;1.90;1.30;;;;;;;24.77;55.90;100620.84;5013643;28;20049;-76
2022/06/29 10:07:55;;;;;;;2.65;1.63;;;;;;;24.16;57.86;100552.84;5017934;28;20037;-76
2022/06/29 10:10:23;;;;;;;1.90;1.70;;;;;;;25.01;58.87;100781.59;5019079;28;20095;-77
2022/06/29 10:15:57;;;;;;;1.60;1.50;;;;;;;26.02;52.52;100693.28;5013185;28;20550;-76
2022/06/29 10:18:44;;;;;;;2.05;1.80;;;;;;;26.32;50.98;100650.72;5013427;28;20038;-76
2022/06/29 10:21:16;;;;;;;2.97;1.40;;;;;;;25.75;51.06;100534.00;5012040;28;20045;-75
2022/06/29 10:23:53;;;;;;;1.85;1.35;;;;;;;26.16;51.85;100685.41;5013311;28;20532;-76
2022/06/29 10:26:31;;;;;;;2.75;1.50;;;;;;;26.80;49.34;100665.06;5017311;28;20049;-76
2022/06/29 10:29:23;;;;;;;2.33;1.48;;;;;;;25.95;49.19;100421.16;5018154;28;20038;-77
2022/06/29 10:31:54;;;;;;;2.85;1.40;;;;;;;26.52;52.66;100787.63;5007774;28;20037;-76
2022/06/29 10:34:35;;;;;;;3.08;1.10;;;;;;;27.74;47.95;100756.00;5018196;28;20046;-75
2022/06/29 10:37:14;;;;;;;2.47;1.52;;;;;;;27.36;47.74;100610.22;5015942;28;20596;-77
2022/06/29 10:39:45;;;;;;;1.83;1.30;;;;;;;26.54;49.41;100565.66;5011875;28;20036;-75
2022/06/29 10:45:24;;;;;;;6.07;1.58;;;;;;;27.52;48.52;100747.28;5016508;28;20038;-75
2022/06/29 10:47:53;;;;;;;4.18;2.13;;;;;;;27.11;48.66;100652.19;5017099;28;20037;-75
2022/06/29 10:50:20;;;;;;;5.28;2.00;;;;;;;27.55;48.09;100700.13;4999985;28;20368;-76
2022/06/29 10:52:46;;;;;;;4.18;1.95;;;;;;;27.70;46.49;100570.38;5019105;28;20033;-76
2022/06/29 10:55:12;;;;;;;2.50;1.13;;;;;;;27.82;47.22;100677.84;5018505;28;20135;-76
2022/06/29 10:57:39;;;;;;;;;;;;;;;28.40;45.65;100680.06;5015625;28;20483;-76
2022/06/29 11:00:10;;;;;;;4.13;1.30;;;;;;;27.54;45.73;100451.72;5016161;28;19957;-76
2022/06/29 11:02:37;;;;;;;4.40;1.50;;;;;;;27.05;48.12;100520.97;5018199;28;20033;-76
2022/06/29 11:05:03;;;;;;;4.47;1.17;;;;;;;27.86;48.68;100757.66;5016157;28;20026;-77
2022/06/29 11:12:57;;;;;;;5.82;1.60;;;;;;;29.14;43.31;100598.50;5019717;28;20041;-77
2022/06/29 11:15:42;;;;;;;2.35;1.50;;;;;;;28.21;43.94;100405.44;5012634;28;20027;-77
2022/06/29 11:18:15;;;;;;;3.45;1.50;;;;;;;28.43;44.14;100446.16;5017397;28;20101;-77
2022/06/29 11:20:43;;;;;;;2.72;1.42;;;;;;;29.03;44.17;100641.75;5005384;28;20033;-77
2022/06/29 11:23:10;;;;;;;6.63;1.63;;;;;;;27.92;45.58;100432.84;4997285;28;20535;-76
2022/06/29 11:25:41;;;;;;;4.50;1.60;;;;;;;27.65;48.23;100592.31;5021280;28;20083;-76
2022/06/29 11:28:07;;;;;;;1.83;1.20;;;;;;;27.97;47.19;100556.28;5020089;28;20482;-76
2022/06/29 11:30:32;;;;;;;3.72;1.58;;;;;;;27.94;47.84;100633.66;5021737;28;20155;-77
2022/06/29 11:32:58;;;;;;;5.38;1.80;;;;;;;27.95;47.68;100588.66;5020916;28;20037;-77
2022/06/29 11:35:26;;;;;;;3.83;1.40;;;;;;;27.80;47.12;100515.47;5020725;28;20033;-76
2022/06/29 11:38:01;;;;;;;4.72;1.50;;;;;;;27.80;46.44;100457.88;5020414;28;20057;-77
2022/06/29 11:40:41;;;;;;;4.43;1.63;;;;;;;27.30;50.60;100603.13;5021294;28;20497;-76
2022/06/29 11:43:08;;;;;;;1.95;1.25;;;;;;;27.88;47.36;100538.75;5019947;28;20042;-76
2022/06/29 11:45:51;;;;;;;2.17;1.65;;;;;;;27.61;46.70;100426.75;5021245;28;20026;-76
2022/06/29 11:48:17;;;;;;;3.85;1.50;;;;;;;27.08;49.86;100515.72;5001686;28;20539;-76
2022/06/29 11:50:49;;;;;;;;;;;;;;;26.71;50.63;100513.34;5022505;28;20045;-76